createdAt,value
2018-04-17T00:00:38.486Z,6.63
2018-04-17T00:03:08.903Z,5.80
2018-04-17T00:05:39.550Z,5.23
2018-04-17T00:08:08.465Z,6.03
2018-04-17T00:10:38.618Z,5.30
2018-04-17T00:13:08.299Z,5.43
2018-04-17T00:15:38.439Z,5.30
2018-04-17T00:18:07.355Z,6.33
2018-04-17T00:20:36.252Z,6.60
2018-04-17T00:23:06.542Z,5.50
2018-04-17T00:25:35.255Z,6.73
2018-04-17T00:28:04.153Z,6.90
2018-04-17T00:30:34.446Z,6.43
2018-04-17T00:33:03.150Z,6.77
2018-04-17T00:35:33.404Z,6.40
2018-04-17T00:38:03.256Z,7.60
2018-04-17T00:40:33.553Z,6.40
2018-04-17T00:43:02.648Z,8.13
2018-04-17T00:45:32.321Z,5.87
2018-04-17T00:48:02.739Z,4.70
2018-04-17T00:50:33.018Z,5.93
2018-04-17T00:53:01.726Z,6.23
2018-04-17T00:55:30.610Z,5.97
2018-04-17T00:58:00.880Z,6.40
2018-04-17T01:00:29.977Z,6.67
2018-04-17T01:02:59.267Z,5.97
2018-04-17T01:05:29.308Z,5.87
2018-04-17T01:07:58.246Z,6.50
2018-04-17T01:10:28.288Z,6.20
2018-04-17T01:12:58.565Z,5.90
2018-04-17T01:15:27.497Z,6.17
2018-04-17T01:17:57.914Z,5.50
2018-04-17T01:20:28.220Z,6.50
2018-04-17T01:22:58.253Z,6.40
2018-04-17T01:25:28.098Z,6.10
2018-04-17T01:27:57.394Z,6.43
2018-04-17T01:30:26.306Z,7.20
2018-04-17T01:32:57.228Z,6.63
2018-04-17T01:35:26.151Z,7.33
2018-04-17T01:37:55.048Z,6.53
2018-04-17T01:40:24.733Z,6.87
2018-04-17T01:42:53.627Z,6.60
2018-04-17T01:45:22.567Z,6.53
2018-04-17T01:47:51.476Z,6.70
2018-04-17T01:50:20.381Z,7.47
2018-04-17T01:52:50.424Z,8.40
2018-04-17T01:55:19.329Z,7.13
2018-04-17T01:57:49.034Z,7.67
2018-04-17T02:00:19.444Z,7.30
2018-04-17T02:02:48.753Z,7.87
2018-04-17T02:05:18.448Z,8.40
2018-04-17T02:07:48.133Z,7.93
2018-04-17T02:10:17.421Z,8.43
2018-04-17T02:12:47.470Z,9.23
2018-04-17T02:15:16.377Z,8.97
2018-04-17T02:17:45.269Z,7.27
2018-04-17T02:20:14.586Z,7.80
2018-04-17T02:22:43.898Z,8.40
2018-04-17T02:25:13.956Z,8.60
2018-04-17T02:27:43.266Z,9.00
2018-04-17T02:30:12.577Z,9.97
2018-04-17T02:32:41.497Z,8.70
2018-04-17T02:35:11.753Z,8.67
2018-04-17T02:37:41.812Z,9.20
2018-04-17T02:40:10.515Z,10.40
2018-04-17T02:42:40.805Z,10.27
2018-04-17T02:45:11.178Z,9.40
2018-04-17T02:47:40.471Z,10.00
2018-04-17T02:50:09.798Z,8.87
2018-04-17T02:52:38.701Z,10.87
2018-04-17T02:55:07.625Z,10.50
2018-04-17T02:57:36.939Z,9.47
2018-04-17T03:00:07.274Z,9.93
2018-04-17T03:02:36.181Z,9.97
2018-04-17T03:05:05.493Z,10.90
2018-04-17T03:07:34.396Z,11.30
2018-04-17T03:10:03.311Z,10.60
2018-04-17T03:12:32.211Z,11.80
2018-04-17T03:15:01.155Z,11.83
2018-04-17T03:17:30.056Z,11.97
2018-04-17T03:20:00.099Z,13.47
2018-04-17T03:22:29.023Z,12.47
2018-04-17T03:24:58.711Z,13.43
2018-04-17T03:27:27.658Z,13.97
2018-04-17T03:29:57.335Z,14.20
2018-04-17T03:32:27.033Z,14.70
2018-04-17T03:34:57.437Z,14.60
2018-04-17T03:37:26.604Z,15.80
2018-04-17T03:39:55.528Z,14.43
2018-04-17T03:42:24.546Z,14.80
2018-04-17T03:44:53.437Z,16.80
2018-04-17T03:47:23.891Z,14.80
2018-04-17T03:49:54.319Z,11.80
2018-04-17T03:52:24.371Z,17.43
2018-04-17T03:54:53.290Z,16.87
2018-04-17T03:57:23.025Z,17.90
2018-04-17T03:59:52.319Z,16.87
2018-04-17T04:02:22.085Z,17.83
2018-04-17T04:04:51.024Z,17.50
2018-04-17T04:07:19.938Z,17.30
2018-04-17T04:09:48.853Z,18.20
2018-04-17T04:12:19.379Z,17.60
2018-04-17T04:14:48.079Z,18.73
2018-04-17T04:17:28.793Z,17.80
2018-04-17T04:20:20.235Z,15.70
2018-04-17T04:23:01.009Z,17.17
2018-04-17T04:25:37.452Z,16.27
2018-04-17T04:28:06.393Z,15.63
2018-04-17T04:30:35.324Z,17.10
2018-04-17T04:33:05.000Z,15.57
2018-04-17T04:35:34.316Z,15.23
2018-04-17T04:38:03.991Z,14.80
2018-04-17T04:40:34.480Z,19.50
2018-04-17T04:43:04.159Z,17.13
2018-04-17T04:45:34.419Z,16.83
2018-04-17T04:48:03.906Z,16.63
2018-04-17T04:50:33.595Z,16.53
2018-04-17T04:53:02.899Z,14.83
2018-04-17T04:55:32.239Z,15.63
2018-04-17T04:58:01.147Z,16.67
2018-04-17T05:00:30.050Z,16.73
2018-04-17T05:02:59.479Z,18.77
2018-04-17T05:05:28.382Z,19.40
2018-04-17T05:07:57.711Z,18.77
2018-04-17T05:10:26.629Z,18.13
2018-04-17T05:12:55.585Z,20.47
2018-04-17T05:15:25.647Z,20.07
2018-04-17T05:17:54.595Z,20.60
2018-04-17T05:20:25.049Z,19.20
2018-04-17T05:22:54.390Z,17.87
2018-04-17T05:25:23.388Z,17.90
2018-04-17T05:27:52.285Z,17.40
2018-04-17T05:30:21.213Z,16.13
2018-04-17T05:32:51.488Z,15.80
2018-04-17T05:35:21.696Z,17.50
2018-04-17T05:37:51.984Z,15.47
2018-04-17T05:40:22.038Z,15.80
2018-04-17T05:42:52.111Z,15.77
2018-04-17T05:45:22.990Z,15.90
2018-04-17T05:47:53.468Z,16.30
2018-04-17T05:50:24.078Z,14.07
2018-04-17T05:52:54.144Z,13.77
2018-04-17T05:55:23.988Z,14.80
2018-04-17T05:57:54.037Z,13.63
2018-04-17T06:00:24.325Z,13.63
2018-04-17T06:02:53.031Z,14.30
2018-04-17T06:05:22.712Z,12.50
2018-04-17T06:07:52.415Z,13.20
2018-04-17T06:10:21.329Z,11.63
2018-04-17T06:12:51.387Z,11.90
2018-04-17T06:15:21.465Z,11.20
2018-04-17T06:17:50.384Z,10.97
2018-04-17T06:20:20.844Z,9.83
2018-04-17T06:22:51.889Z,10.20
2018-04-17T06:25:21.592Z,10.33
2018-04-17T06:27:50.524Z,9.93
2018-04-17T06:30:20.820Z,10.30
2018-04-17T06:32:50.172Z,10.83
2018-04-17T06:35:21.095Z,8.90
2018-04-17T06:37:50.526Z,8.83
2018-04-17T06:40:20.302Z,9.73
2018-04-17T06:42:50.579Z,8.97
2018-04-17T06:45:20.676Z,7.47
2018-04-17T06:47:49.419Z,7.13
2018-04-17T06:50:22.777Z,6.93
2018-04-17T06:52:51.853Z,7.97
2018-04-17T06:55:22.859Z,8.00
2018-04-17T06:57:52.610Z,7.40
2018-04-17T07:00:21.925Z,7.70
2018-04-17T07:02:51.740Z,7.47
2018-04-17T07:05:22.102Z,6.83
2018-04-17T07:07:50.844Z,6.13
2018-04-17T07:10:19.826Z,6.30
2018-04-17T07:12:48.762Z,6.70
2018-04-17T07:15:20.078Z,6.50
2018-04-17T07:17:50.128Z,5.63
2018-04-17T07:20:19.494Z,6.00
2018-04-17T07:22:50.580Z,7.63
2018-04-17T07:25:23.642Z,5.90
2018-04-17T07:27:53.048Z,5.50
2018-04-17T07:30:23.353Z,5.70
2018-04-17T07:32:53.564Z,5.57
2018-04-17T07:35:23.450Z,5.87
2018-04-17T07:37:52.386Z,5.50
2018-04-17T07:40:21.648Z,5.33
2018-04-17T07:42:52.206Z,3.87
2018-04-17T07:45:21.548Z,3.67
2018-04-17T07:47:57.526Z,3.40
2018-04-17T07:50:26.283Z,3.67
2018-04-17T07:52:56.806Z,4.13
2018-04-17T07:55:28.491Z,3.90
2018-04-17T07:57:57.538Z,4.03
2018-04-17T08:00:27.653Z,3.70
2018-04-17T08:02:56.800Z,3.43
2018-04-17T08:05:25.758Z,3.10
2018-04-17T08:07:55.745Z,3.27
2018-04-17T08:10:25.454Z,3.63
2018-04-17T08:12:54.420Z,3.60
2018-04-17T08:15:26.132Z,2.87
2018-04-17T08:17:55.810Z,3.00
2018-04-17T08:20:25.660Z,2.90
2018-04-17T08:22:56.208Z,2.93
2018-04-17T08:25:27.156Z,3.60
2018-04-17T08:28:00.137Z,3.00
2018-04-17T08:30:31.447Z,2.40
2018-04-17T08:33:01.206Z,2.63
2018-04-17T08:35:31.266Z,2.40
2018-04-17T08:38:00.280Z,2.73
2018-04-17T08:40:29.625Z,2.90
2018-04-17T08:42:59.552Z,2.30
2018-04-17T08:45:29.846Z,2.90
2018-04-17T08:47:59.594Z,2.53
2018-04-17T08:50:28.528Z,2.67
2018-04-17T08:52:58.252Z,3.10
2018-04-17T08:55:28.163Z,2.60
2018-04-17T08:57:59.501Z,3.23
2018-04-17T09:00:28.644Z,3.50
2018-04-17T09:02:59.144Z,3.00
2018-04-17T09:05:29.839Z,2.80
2018-04-17T09:07:58.825Z,4.00
2018-04-17T09:10:29.274Z,4.20
2018-04-17T09:13:00.745Z,3.87
2018-04-17T09:15:30.456Z,4.50
2018-04-17T09:18:00.407Z,4.77
2018-04-17T09:20:31.328Z,4.40
2018-04-17T09:23:00.884Z,4.60
2018-04-17T09:25:30.076Z,4.07
2018-04-17T09:28:00.884Z,4.60
2018-04-17T09:30:29.841Z,5.00
2018-04-17T09:33:00.732Z,4.90
2018-04-17T09:35:31.668Z,4.90
2018-04-17T09:38:00.662Z,5.30
2018-04-17T09:40:30.769Z,5.57
2018-04-17T09:43:01.070Z,5.70
2018-04-17T09:45:30.058Z,5.40
2018-04-17T09:48:08.296Z,5.30
2018-04-17T09:50:38.890Z,5.53
2018-04-17T09:53:09.350Z,5.30
2018-04-17T09:55:39.687Z,5.27
2018-04-17T09:58:11.404Z,4.90
2018-04-17T10:00:46.430Z,6.10
2018-04-17T10:03:18.133Z,5.10
2018-04-17T10:05:48.629Z,5.37
2018-04-17T10:08:18.339Z,5.37
2018-04-17T10:10:47.930Z,5.17
2018-04-17T10:13:19.158Z,5.40
2018-04-17T10:15:49.905Z,5.43
2018-04-17T10:18:19.691Z,5.80
2018-04-17T10:20:49.435Z,5.63
2018-04-17T10:23:20.695Z,5.93
2018-04-17T10:25:49.558Z,5.70
2018-04-17T10:28:19.871Z,5.90
2018-04-17T10:30:50.326Z,6.17
2018-04-17T10:33:20.795Z,6.17
2018-04-17T10:35:51.156Z,5.03
2018-04-17T10:38:22.048Z,5.43
2018-04-17T10:40:52.837Z,5.03
2018-04-17T10:43:23.337Z,5.50
2018-04-17T10:45:53.753Z,5.00
2018-04-17T10:48:29.640Z,5.20
2018-04-17T10:50:59.976Z,5.93
2018-04-17T10:53:29.168Z,5.70
2018-04-17T10:55:59.225Z,6.10
2018-04-17T10:58:33.923Z,6.50
2018-04-17T11:01:03.758Z,6.00
2018-04-17T11:03:35.372Z,5.40
2018-04-17T11:06:04.709Z,6.03
2018-04-17T11:08:33.640Z,5.50
2018-04-17T11:11:03.367Z,5.83
2018-04-17T11:13:33.068Z,5.83
2018-04-17T11:16:03.622Z,5.80
2018-04-17T11:18:37.129Z,5.77
2018-04-17T11:21:06.775Z,6.80
2018-04-17T11:23:38.124Z,5.20
2018-04-17T11:26:08.769Z,5.40
2018-04-17T11:28:39.040Z,7.13
2018-04-17T11:31:08.283Z,6.30
2018-04-17T11:33:37.625Z,7.60
2018-04-17T11:36:06.554Z,6.27
2018-04-17T11:38:35.481Z,6.27
2018-04-17T11:41:05.621Z,7.20
2018-04-17T11:43:35.349Z,6.20
2018-04-17T11:46:05.675Z,6.63
2018-04-17T11:48:35.104Z,6.90
2018-04-17T11:51:05.537Z,7.67
2018-04-17T11:53:35.536Z,6.87
2018-04-17T11:56:04.450Z,7.10
2018-04-17T11:58:34.522Z,6.93
2018-04-17T12:01:04.715Z,8.50
2018-04-17T12:03:33.645Z,7.90
2018-04-17T12:06:05.050Z,7.03
2018-04-17T12:08:36.389Z,6.90
2018-04-17T12:11:05.717Z,8.27
2018-04-17T12:13:37.453Z,6.93
2018-04-17T12:16:07.826Z,7.80
2018-04-17T12:18:40.260Z,7.60
2018-04-17T12:21:10.317Z,8.90
2018-04-17T12:23:39.470Z,8.67
2018-04-17T12:26:09.871Z,7.80
2018-04-17T12:28:43.646Z,8.90
2018-04-17T12:31:14.272Z,8.43
2018-04-17T12:33:44.558Z,7.60
2018-04-17T12:36:13.700Z,8.13
2018-04-17T12:38:42.702Z,9.00
2018-04-17T12:41:12.397Z,8.87
2018-04-17T12:43:42.722Z,8.53
2018-04-17T12:46:12.220Z,8.70
2018-04-17T12:48:43.214Z,9.10
2018-04-17T12:51:12.151Z,8.40
2018-04-17T12:53:41.086Z,8.80
2018-04-17T12:56:10.007Z,9.17
2018-04-17T12:58:39.356Z,10.37
2018-04-17T13:01:09.081Z,9.20
2018-04-17T13:03:38.391Z,9.50
2018-04-17T13:06:07.685Z,9.40
2018-04-17T13:08:38.201Z,7.77
2018-04-17T13:11:08.362Z,8.33
2018-04-17T13:13:39.275Z,8.13
2018-04-17T13:16:08.588Z,8.10
2018-04-17T13:18:37.490Z,8.53
2018-04-17T13:21:06.797Z,8.90
2018-04-17T13:23:36.553Z,9.10
2018-04-17T13:26:06.338Z,8.13
2018-04-17T13:28:37.133Z,8.07
2018-04-17T13:31:08.453Z,7.50
2018-04-17T13:33:37.542Z,8.43
2018-04-17T13:36:06.728Z,8.10
2018-04-17T13:38:36.414Z,8.20
2018-04-17T13:41:06.464Z,7.87
2018-04-17T13:43:35.396Z,9.20
2018-04-17T13:46:04.844Z,8.90
2018-04-17T13:48:33.764Z,8.53
2018-04-17T13:51:02.685Z,9.27
2018-04-17T13:53:32.960Z,8.47
2018-04-17T13:56:02.801Z,8.40
2018-04-17T13:58:32.143Z,8.60
2018-04-17T14:01:01.845Z,9.73
2018-04-17T14:03:30.776Z,7.97
2018-04-17T14:06:00.162Z,9.57
2018-04-17T14:08:30.219Z,9.10
2018-04-17T14:11:00.428Z,9.43
2018-04-17T14:13:29.355Z,8.80
2018-04-17T14:15:59.413Z,8.60
2018-04-17T14:18:28.993Z,9.40
2018-04-17T14:20:58.802Z,9.57
2018-04-17T14:23:28.582Z,11.30
2018-04-17T14:25:57.533Z,9.73
2018-04-17T14:28:26.445Z,9.90
2018-04-17T14:30:56.141Z,9.70
2018-04-17T14:33:25.157Z,10.03
2018-04-17T14:35:55.393Z,10.10
2018-04-17T14:38:25.573Z,9.60
2018-04-17T14:40:54.366Z,10.87
2018-04-17T14:43:24.722Z,9.67
2018-04-17T14:45:53.437Z,10.30
2018-04-17T14:48:22.805Z,10.60
2018-04-17T14:50:51.731Z,10.30
2018-04-17T14:53:22.051Z,10.63
2018-04-17T14:55:54.293Z,9.87
2018-04-17T14:58:27.843Z,10.90
2018-04-17T15:00:56.537Z,10.00
2018-04-17T15:03:25.476Z,10.50
2018-04-17T15:05:54.829Z,10.77
2018-04-17T15:08:25.247Z,10.30
2018-04-17T15:10:55.565Z,11.03
2018-04-17T15:13:25.786Z,10.73
2018-04-17T15:15:55.934Z,10.90
2018-04-17T15:18:25.723Z,10.70
2018-04-17T15:20:55.419Z,10.33
2018-04-17T15:23:27.630Z,9.97
2018-04-17T15:25:57.257Z,10.30
2018-04-17T15:28:26.671Z,10.00
2018-04-17T15:30:55.693Z,10.33
2018-04-17T15:33:24.981Z,9.80
2018-04-17T15:35:53.900Z,11.10
2018-04-17T15:38:24.066Z,9.63
2018-04-17T15:40:52.973Z,9.27
2018-04-17T15:43:23.246Z,10.00
2018-04-17T15:45:52.436Z,8.77
2018-04-17T15:48:21.756Z,10.33
2018-04-17T15:50:50.766Z,9.37
2018-04-17T15:53:20.837Z,10.07
2018-04-17T15:55:52.477Z,9.73
2018-04-17T15:58:22.916Z,9.87
2018-04-17T16:00:52.904Z,9.73
2018-04-17T16:03:21.839Z,9.80
2018-04-17T16:05:51.761Z,10.37
2018-04-17T16:08:21.086Z,9.27
2018-04-17T16:10:50.921Z,9.90
2018-04-17T16:13:20.631Z,10.27
2018-04-17T16:15:50.927Z,9.90
2018-04-17T16:18:20.992Z,10.73
2018-04-17T16:20:51.073Z,9.80
2018-04-17T16:23:20.980Z,10.47
2018-04-17T16:25:51.455Z,10.80
2018-04-17T16:28:22.216Z,9.57
2018-04-17T16:30:50.928Z,9.73
2018-04-17T16:33:22.176Z,9.93
2018-04-17T16:35:52.918Z,11.70
2018-04-17T16:38:24.320Z,11.30
2018-04-17T16:40:54.094Z,10.20
2018-04-17T16:43:24.365Z,10.60
2018-04-17T16:45:54.800Z,10.70
2018-04-17T16:48:25.066Z,10.60
2018-04-17T16:50:56.208Z,11.32
2018-04-17T16:53:25.902Z,11.10
2018-04-17T16:55:55.632Z,11.57
2018-04-17T16:58:27.606Z,11.27
2018-04-17T17:00:57.342Z,10.17
2018-04-17T17:03:26.690Z,10.80
2018-04-17T17:05:56.414Z,10.60
2018-04-17T17:08:26.708Z,10.60
2018-04-17T17:10:55.439Z,10.40
2018-04-17T17:13:25.735Z,10.00
2018-04-17T17:15:56.150Z,8.93
2018-04-17T17:18:24.881Z,9.53
2018-04-17T17:20:53.807Z,12.17
2018-04-17T17:23:24.096Z,18.97
2018-04-17T17:25:52.820Z,18.27
2018-04-17T17:28:23.150Z,12.90
2018-04-17T17:30:51.855Z,11.50
2018-04-17T17:33:21.260Z,11.13
2018-04-17T17:35:51.795Z,10.90
2018-04-17T17:38:21.598Z,10.03
2018-04-17T17:40:50.536Z,11.30
2018-04-17T17:43:20.824Z,9.53
2018-04-17T17:45:50.886Z,9.53
2018-04-17T17:48:21.110Z,10.13
2018-04-17T17:50:50.823Z,10.10
2018-04-17T17:53:21.135Z,10.90
2018-04-17T17:55:50.600Z,9.67
2018-04-17T17:58:20.910Z,10.37
2018-04-17T18:00:50.986Z,10.13
2018-04-17T18:03:21.242Z,10.77
2018-04-17T18:05:50.592Z,11.00
2018-04-17T18:08:20.872Z,12.97
2018-04-17T18:10:50.392Z,11.43
2018-04-17T18:13:20.724Z,12.57
2018-04-17T18:15:50.787Z,10.93
2018-04-17T18:18:20.910Z,11.67
2018-04-17T18:20:49.625Z,12.27
2018-04-17T18:23:19.913Z,13.10
2018-04-17T18:25:50.006Z,13.20
2018-04-17T18:28:20.102Z,13.97
2018-04-17T18:30:50.193Z,14.47
2018-04-17T18:33:19.673Z,15.38
2018-04-17T18:35:49.993Z,13.87
2018-04-17T18:38:20.080Z,14.30
2018-04-17T18:40:49.589Z,13.20
2018-04-17T18:43:19.901Z,13.03
2018-04-17T18:45:49.378Z,13.10
2018-04-17T18:48:19.679Z,12.20
2018-04-17T18:50:49.768Z,17.70
2018-04-17T18:53:19.835Z,16.10
2018-04-17T18:55:49.330Z,20.50
2018-04-17T18:58:20.313Z,17.37
2018-04-17T19:00:50.413Z,16.00
2018-04-17T19:03:20.622Z,13.63
2018-04-17T19:05:50.334Z,12.23
2018-04-17T19:08:20.639Z,11.20
2018-04-17T19:10:49.773Z,11.00
2018-04-17T19:13:20.077Z,9.93
2018-04-17T19:15:49.584Z,11.17
2018-04-17T19:18:19.917Z,10.10
2018-04-17T19:20:48.654Z,10.00
2018-04-17T19:23:18.734Z,9.30
2018-04-17T19:25:49.045Z,10.50
2018-04-17T19:28:18.226Z,10.10
2018-04-17T19:30:48.505Z,10.70
2018-04-17T19:33:18.606Z,10.43
2018-04-17T19:35:48.471Z,10.20
2018-04-17T19:38:18.779Z,9.50
2018-04-17T19:40:47.553Z,9.47
2018-04-17T19:43:16.484Z,9.90
2018-04-17T19:45:45.472Z,9.40
2018-04-17T19:48:15.889Z,9.03
2018-04-17T19:50:45.982Z,9.97
2018-04-17T19:53:14.719Z,10.20
2018-04-17T19:55:45.820Z,9.27
2018-04-17T19:58:16.098Z,9.30
2018-04-17T20:00:44.822Z,9.90
2018-04-17T20:03:15.095Z,10.60
2018-04-17T20:05:45.014Z,11.37
2018-04-17T20:08:13.972Z,10.30
2018-04-17T20:10:43.050Z,11.87
2018-04-17T20:13:12.368Z,11.57
2018-04-17T20:15:42.674Z,11.77
2018-04-17T20:18:11.461Z,12.17
2018-04-17T20:20:40.422Z,10.53
2018-04-17T20:23:10.723Z,11.20
2018-04-17T20:25:40.798Z,11.97
2018-04-17T20:28:09.938Z,10.67
2018-04-17T20:30:39.672Z,11.17
2018-04-17T20:33:09.996Z,10.70
2018-04-17T20:35:38.824Z,11.70
2018-04-17T20:38:07.727Z,11.27
2018-04-17T20:40:36.675Z,11.53
2018-04-17T20:43:06.946Z,12.50
2018-04-17T20:45:35.685Z,11.37
2018-04-17T20:48:05.756Z,11.00
2018-04-17T20:50:36.050Z,11.57
2018-04-17T20:53:05.527Z,11.57
2018-04-17T20:55:35.621Z,13.23
2018-04-17T20:58:04.587Z,12.83
2018-04-17T21:00:33.510Z,11.93
2018-04-17T21:03:02.865Z,11.87
2018-04-17T21:05:32.191Z,12.20
2018-04-17T21:08:01.877Z,12.70
2018-04-17T21:10:31.613Z,13.20
2018-04-17T21:13:00.555Z,13.43
2018-04-17T21:15:30.833Z,12.70
2018-04-17T21:18:00.337Z,12.13
2018-04-17T21:20:30.038Z,14.57
2018-04-17T21:23:00.316Z,13.90
2018-04-17T21:25:29.440Z,14.60
2018-04-17T21:27:58.414Z,14.23
2018-04-17T21:30:28.727Z,15.33
2018-04-17T21:32:57.434Z,15.30
2018-04-17T21:35:27.498Z,14.40
2018-04-17T21:37:56.437Z,16.50
2018-04-17T21:40:26.481Z,17.53
2018-04-17T21:42:55.422Z,16.67
2018-04-17T21:45:25.692Z,16.50
2018-04-17T21:47:54.840Z,17.83
2018-04-17T21:50:25.899Z,16.80
2018-04-17T21:52:55.015Z,17.73
2018-04-17T21:55:25.307Z,16.77
2018-04-17T21:58:00.210Z,15.43
2018-04-17T22:00:28.926Z,17.23
2018-04-17T22:02:59.222Z,17.27
2018-04-17T22:05:28.686Z,16.63
2018-04-17T22:07:57.643Z,17.47
2018-04-17T22:10:28.094Z,17.00
2018-04-17T22:12:58.336Z,16.90
2018-04-17T22:15:27.270Z,17.17
2018-04-17T22:17:56.215Z,17.57
2018-04-17T22:20:26.482Z,17.07
2018-04-17T22:22:55.178Z,16.97
2018-04-17T22:25:25.473Z,16.80
2018-04-17T22:27:54.176Z,17.00
2018-04-17T22:30:23.534Z,17.50
2018-04-17T22:32:52.849Z,18.40
2018-04-17T22:35:21.784Z,17.07
2018-04-17T22:37:50.716Z,17.40
2018-04-17T22:40:20.415Z,19.03
2018-04-17T22:42:49.358Z,18.80
2018-04-17T22:45:19.040Z,17.37
2018-04-17T22:47:48.362Z,17.30
2018-04-17T22:50:18.448Z,18.60
2018-04-17T22:52:47.384Z,16.57
2018-04-17T22:55:16.778Z,19.70
2018-04-17T22:57:45.706Z,19.00
2018-04-17T23:00:15.536Z,19.23
2018-04-17T23:02:44.446Z,19.80
2018-04-17T23:05:13.774Z,19.40
2018-04-17T23:07:43.596Z,20.50
2018-04-17T23:10:13.285Z,20.00
2018-04-17T23:12:42.669Z,20.23
2018-04-17T23:15:11.591Z,18.63
2018-04-17T23:17:41.313Z,19.47
2018-04-17T23:20:11.163Z,19.70
2018-04-17T23:22:41.434Z,18.63
2018-04-17T23:25:10.928Z,20.60
2018-04-17T23:27:39.923Z,18.70
2018-04-17T23:30:08.852Z,17.80
2018-04-17T23:32:38.168Z,19.57
2018-04-17T23:35:07.860Z,19.00
2018-04-17T23:37:36.783Z,17.50
2018-04-17T23:40:05.717Z,19.33
2018-04-17T23:42:34.628Z,19.20
2018-04-17T23:45:03.539Z,19.50
2018-04-17T23:47:33.250Z,18.33
2018-04-17T23:50:02.163Z,18.90
2018-04-17T23:52:32.951Z,19.50
2018-04-17T23:55:02.661Z,19.53
2018-04-17T23:57:33.074Z,20.00
